createdAt,value
2023-02-02T00:00:15.939Z,99.99
2023-02-02T00:01:15.948Z,99.99
2023-02-02T00:02:15.929Z,99.99
2023-02-02T00:03:15.963Z,99.99
2023-02-02T00:04:16.290Z,99.99
2023-02-02T00:05:15.919Z,99.99
2023-02-02T00:06:15.891Z,99.99
2023-02-02T00:07:15.918Z,99.99
2023-02-02T00:08:15.890Z,99.99
2023-02-02T00:09:15.897Z,99.99
2023-02-02T00:10:15.842Z,99.99
2023-02-02T00:11:15.847Z,99.99
2023-02-02T00:12:15.818Z,99.99
2023-02-02T00:13:15.825Z,99.99
2023-02-02T00:14:15.787Z,99.99
2023-02-02T00:15:15.789Z,99.99
2023-02-02T00:16:15.860Z,99.99
2023-02-02T00:17:16.058Z,99.99
2023-02-02T00:18:15.734Z,99.99
2023-02-02T00:19:15.750Z,99.99
2023-02-02T00:20:15.726Z,99.99
2023-02-02T00:21:15.718Z,99.99
2023-02-02T00:22:15.711Z,99.99
2023-02-02T00:23:22.768Z,99.99
2023-02-02T00:24:15.679Z,99.99
2023-02-02T00:25:15.705Z,99.99
2023-02-02T00:26:15.680Z,99.99
2023-02-02T00:27:15.657Z,99.99
2023-02-02T00:28:15.738Z,99.99
2023-02-02T00:29:15.641Z,99.99
2023-02-02T00:30:15.658Z,99.99
2023-02-02T00:31:15.892Z,99.99
2023-02-02T00:32:15.618Z,99.99
2023-02-02T00:33:15.585Z,99.99
2023-02-02T00:34:15.586Z,99.99
2023-02-02T00:35:15.578Z,99.99
2023-02-02T00:36:15.839Z,99.99
2023-02-02T00:37:22.610Z,99.99
2023-02-02T00:38:15.530Z,99.99
2023-02-02T00:39:15.546Z,99.99
2023-02-02T00:40:15.524Z,99.99
2023-02-02T00:41:15.578Z,99.99
2023-02-02T00:42:15.518Z,99.99
2023-02-02T00:43:15.482Z,99.99
2023-02-02T00:44:15.454Z,99.99
2023-02-02T00:45:15.461Z,99.99
2023-02-02T00:46:15.484Z,99.99
2023-02-02T00:47:15.551Z,99.99
2023-02-02T00:48:15.431Z,99.99
2023-02-02T00:49:15.410Z,99.99
2023-02-02T00:50:15.738Z,99.99
2023-02-02T00:51:15.392Z,99.99
2023-02-02T00:52:15.379Z,99.99
2023-02-02T00:53:15.360Z,99.99
2023-02-02T00:54:15.351Z,99.99
2023-02-02T00:55:15.904Z,99.99
2023-02-02T00:56:15.322Z,99.99
2023-02-02T00:57:15.787Z,99.99
2023-02-02T00:58:15.303Z,99.99
2023-02-02T00:59:15.582Z,99.99
2023-02-02T01:00:15.276Z,99.99
2023-02-02T01:01:15.287Z,99.99
2023-02-02T01:02:15.450Z,99.99
2023-02-02T01:03:15.270Z,99.99
2023-02-02T01:04:15.462Z,99.99
2023-02-02T01:05:15.831Z,99.99
2023-02-02T01:06:15.212Z,99.99
2023-02-02T01:07:15.997Z,99.99
2023-02-02T01:08:15.211Z,99.99
2023-02-02T01:09:15.190Z,99.99
2023-02-02T01:10:15.165Z,99.99
2023-02-02T01:11:15.182Z,99.99
2023-02-02T01:12:15.143Z,99.99
2023-02-02T01:13:15.146Z,99.99
2023-02-02T01:14:15.162Z,99.99
2023-02-02T01:15:16.556Z,99.99
2023-02-02T01:16:15.153Z,99.78
2023-02-02T01:17:15.271Z,99.47
2023-02-02T01:18:15.090Z,99.26
2023-02-02T01:19:15.101Z,99.16
2023-02-02T01:20:15.113Z,99.05
2023-02-02T01:21:15.390Z,98.95
2023-02-02T01:22:15.118Z,98.85
2023-02-02T01:23:15.147Z,98.74
2023-02-02T01:24:15.160Z,98.54
2023-02-02T01:25:15.146Z,98.28
2023-02-02T01:26:15.157Z,98.08
2023-02-02T01:27:15.286Z,97.97
2023-02-02T01:28:15.116Z,97.87
2023-02-02T01:29:15.195Z,97.66
2023-02-02T01:30:15.131Z,97.66
2023-02-02T01:31:15.190Z,97.71
2023-02-02T01:32:15.128Z,97.71
2023-02-02T01:33:15.144Z,97.71
2023-02-02T01:34:15.177Z,97.71
2023-02-02T01:35:15.159Z,97.60
2023-02-02T01:36:15.155Z,97.60
2023-02-02T01:37:15.250Z,97.50
2023-02-02T01:38:14.850Z,97.50
2023-02-02T01:39:14.851Z,97.39
2023-02-02T01:40:14.832Z,97.39
2023-02-02T01:41:14.828Z,97.50
2023-02-02T01:42:14.813Z,97.50
2023-02-02T01:43:14.813Z,97.50
2023-02-02T01:44:14.790Z,97.60
2023-02-02T01:45:14.769Z,97.60
2023-02-02T01:46:14.855Z,97.71
2023-02-02T01:47:14.750Z,97.60
2023-02-02T01:48:14.737Z,97.56
2023-02-02T01:49:15.219Z,97.56
2023-02-02T01:50:14.725Z,97.56
2023-02-02T01:51:14.698Z,97.56
2023-02-02T01:52:14.730Z,97.56
2023-02-02T01:53:14.678Z,97.66
2023-02-02T01:54:14.674Z,97.66
2023-02-02T01:55:14.665Z,97.77
2023-02-02T01:56:14.658Z,97.77
2023-02-02T01:57:14.686Z,97.77
2023-02-02T01:58:14.625Z,97.77
2023-02-02T01:59:26.601Z,97.87
2023-02-02T02:00:14.594Z,97.97
2023-02-02T02:01:17.425Z,98.08
2023-02-02T02:02:16.296Z,98.08
2023-02-02T02:03:14.586Z,98.18
2023-02-02T02:04:14.798Z,98.18
2023-02-02T02:05:14.538Z,98.18
2023-02-02T02:06:14.585Z,98.28
2023-02-02T02:07:14.522Z,98.39
2023-02-02T02:08:14.522Z,98.49
2023-02-02T02:09:14.498Z,98.64
2023-02-02T02:10:14.489Z,98.74
2023-02-02T02:11:14.481Z,98.85
2023-02-02T02:12:14.487Z,99.05
2023-02-02T02:13:14.446Z,99.26
2023-02-02T02:14:14.477Z,99.37
2023-02-02T02:15:14.409Z,99.37
2023-02-02T02:16:14.473Z,99.47
2023-02-02T02:17:15.001Z,99.68
2023-02-02T02:18:14.410Z,99.78
2023-02-02T02:19:14.487Z,99.88
2023-02-02T02:20:14.381Z,99.88
2023-02-02T02:21:14.349Z,99.99
2023-02-02T02:22:14.350Z,99.99
2023-02-02T02:23:14.332Z,99.99
2023-02-02T02:24:14.338Z,99.99
2023-02-02T02:25:14.628Z,99.99
2023-02-02T02:26:14.310Z,99.99
2023-02-02T02:27:14.313Z,99.99
2023-02-02T02:28:14.277Z,99.99
2023-02-02T02:29:14.282Z,99.99
2023-02-02T02:30:14.264Z,99.99
2023-02-02T02:31:14.381Z,99.99
2023-02-02T02:32:14.246Z,99.99
2023-02-02T02:33:14.226Z,99.99
2023-02-02T02:34:14.211Z,99.99
2023-02-02T02:35:14.217Z,99.99
2023-02-02T02:36:14.200Z,99.99
2023-02-02T02:37:14.922Z,99.99
2023-02-02T02:38:14.167Z,99.99
2023-02-02T02:39:14.151Z,99.99
2023-02-02T02:40:14.143Z,99.99
2023-02-02T02:41:14.142Z,99.99
2023-02-02T02:42:14.118Z,99.99
2023-02-02T02:43:14.111Z,99.99
2023-02-02T02:44:14.098Z,99.99
2023-02-02T02:45:14.085Z,99.99
2023-02-02T02:46:14.086Z,99.99
2023-02-02T02:47:14.062Z,99.99
2023-02-02T02:48:14.086Z,99.99
2023-02-02T02:49:14.173Z,99.99
2023-02-02T02:50:14.063Z,99.99
2023-02-02T02:51:14.018Z,99.99
2023-02-02T02:52:14.088Z,99.99
2023-02-02T02:53:13.998Z,99.99
2023-02-02T02:54:14.010Z,99.99
2023-02-02T02:55:14.227Z,99.99
2023-02-02T02:56:13.978Z,99.99
2023-02-02T02:57:13.968Z,99.99
2023-02-02T02:58:13.969Z,99.99
2023-02-02T02:59:13.922Z,99.99
2023-02-02T03:00:13.925Z,99.99
2023-02-02T03:01:13.940Z,99.99
2023-02-02T03:02:13.919Z,99.99
2023-02-02T03:03:13.875Z,99.99
2023-02-02T03:04:13.880Z,99.99
2023-02-02T03:05:13.859Z,99.99
2023-02-02T03:06:13.854Z,99.99
2023-02-02T03:07:14.001Z,99.99
2023-02-02T03:08:13.835Z,99.99
2023-02-02T03:09:13.813Z,99.99
2023-02-02T03:10:13.809Z,99.99
2023-02-02T03:11:13.779Z,99.99
2023-02-02T03:12:13.921Z,99.99
2023-02-02T03:13:13.836Z,99.99
2023-02-02T03:14:13.760Z,99.99
2023-02-02T03:15:13.753Z,99.99
2023-02-02T03:16:13.813Z,99.99
2023-02-02T03:17:13.746Z,99.99
2023-02-02T03:18:13.739Z,99.99
2023-02-02T03:19:14.291Z,99.99
2023-02-02T03:20:13.697Z,99.99
2023-02-02T03:21:13.694Z,99.99
2023-02-02T03:22:13.676Z,99.99
2023-02-02T03:23:13.647Z,99.99
2023-02-02T03:24:13.680Z,99.99
2023-02-02T03:25:13.694Z,99.99
2023-02-02T03:26:13.806Z,99.99
2023-02-02T03:27:13.599Z,99.99
2023-02-02T03:28:13.620Z,99.99
2023-02-02T03:29:13.599Z,99.99
2023-02-02T03:30:13.585Z,99.99
2023-02-02T03:31:13.703Z,99.99
2023-02-02T03:32:13.571Z,99.99
2023-02-02T03:33:13.535Z,99.99
2023-02-02T03:34:13.545Z,99.99
2023-02-02T03:35:13.532Z,99.99
2023-02-02T03:36:13.667Z,99.99
2023-02-02T03:37:13.493Z,99.99
2023-02-02T03:38:13.512Z,99.99
2023-02-02T03:39:13.468Z,99.99
2023-02-02T03:40:13.468Z,99.99
2023-02-02T03:41:13.471Z,99.99
2023-02-02T03:42:13.707Z,99.99
2023-02-02T03:43:13.708Z,99.99
2023-02-02T03:44:13.445Z,99.99
2023-02-02T03:45:13.401Z,99.99
2023-02-02T03:46:13.989Z,99.99
2023-02-02T03:47:13.376Z,99.99
2023-02-02T03:48:13.387Z,99.99
2023-02-02T03:49:13.367Z,99.99
2023-02-02T03:50:13.347Z,99.99
2023-02-02T03:51:13.345Z,99.99
2023-02-02T03:52:13.347Z,99.99
2023-02-02T03:53:13.324Z,99.99
2023-02-02T03:54:13.399Z,99.99
2023-02-02T03:55:13.304Z,99.99
2023-02-02T03:56:13.288Z,99.99
2023-02-02T03:57:13.268Z,99.99
2023-02-02T03:58:13.273Z,99.99
2023-02-02T03:59:13.308Z,99.99
2023-02-02T04:00:13.250Z,99.99
2023-02-02T04:01:13.217Z,99.99
2023-02-02T04:02:13.227Z,99.99
2023-02-02T04:03:13.195Z,99.99
2023-02-02T04:04:13.208Z,99.99
2023-02-02T04:05:13.672Z,99.99
2023-02-02T04:06:13.196Z,99.99
2023-02-02T04:07:13.157Z,99.99
2023-02-02T04:08:13.172Z,99.99
2023-02-02T04:09:13.134Z,99.99
2023-02-02T04:10:13.140Z,99.99
2023-02-02T04:11:13.117Z,99.99
2023-02-02T04:12:13.101Z,99.99
2023-02-02T04:13:13.293Z,99.99
2023-02-02T04:14:13.405Z,99.99
2023-02-02T04:15:13.065Z,99.99
2023-02-02T04:16:13.076Z,99.99
2023-02-02T04:17:13.054Z,99.99
2023-02-02T04:18:13.043Z,99.99
2023-02-02T04:19:13.033Z,99.99
2023-02-02T04:20:13.020Z,99.99
2023-02-02T04:21:12.991Z,99.99
2023-02-02T04:22:13.001Z,99.99
2023-02-02T04:23:13.122Z,99.99
2023-02-02T04:24:13.007Z,99.99
2023-02-02T04:25:12.977Z,99.99
2023-02-02T04:26:13.185Z,99.99
2023-02-02T04:27:12.929Z,99.99
2023-02-02T04:28:12.926Z,99.99
2023-02-02T04:29:13.189Z,99.99
2023-02-02T04:30:12.926Z,99.99
2023-02-02T04:31:13.089Z,99.99
2023-02-02T04:32:12.889Z,99.99
2023-02-02T04:33:12.891Z,99.99
2023-02-02T04:34:12.861Z,99.99
2023-02-02T04:35:12.852Z,99.99
2023-02-02T04:36:12.849Z,99.99
2023-02-02T04:37:12.836Z,99.99
2023-02-02T04:38:12.841Z,99.99
2023-02-02T04:39:13.677Z,99.99
2023-02-02T04:40:12.804Z,99.99
2023-02-02T04:41:12.782Z,99.99
2023-02-02T04:42:12.780Z,99.99
2023-02-02T04:43:12.758Z,99.99
2023-02-02T04:44:12.750Z,99.99
2023-02-02T04:45:12.897Z,99.99
2023-02-02T04:46:13.025Z,99.99
2023-02-02T04:47:12.738Z,99.99
2023-02-02T04:48:12.737Z,99.99
2023-02-02T04:49:12.685Z,99.99
2023-02-02T04:50:12.702Z,99.99
2023-02-02T04:51:12.657Z,99.99
2023-02-02T04:52:12.691Z,99.99
2023-02-02T04:53:12.683Z,99.99
2023-02-02T04:54:12.713Z,99.99
2023-02-02T04:55:12.627Z,99.99
2023-02-02T04:56:12.685Z,99.99
2023-02-02T04:57:12.620Z,99.99
2023-02-02T04:58:12.766Z,99.99
2023-02-02T04:59:12.578Z,99.99
2023-02-02T05:00:12.599Z,99.99
2023-02-02T05:01:12.658Z,99.99
2023-02-02T05:02:12.559Z,99.99
2023-02-02T05:03:12.550Z,99.99
2023-02-02T05:04:12.585Z,99.99
2023-02-02T05:05:12.518Z,99.99
2023-02-02T05:06:15.439Z,99.99
2023-02-02T05:07:12.490Z,99.99
2023-02-02T05:08:12.643Z,99.99
2023-02-02T05:09:12.488Z,99.99
2023-02-02T05:10:12.489Z,99.99
2023-02-02T05:11:12.479Z,99.99
2023-02-02T05:12:12.467Z,99.99
2023-02-02T05:13:12.427Z,99.99
2023-02-02T05:14:12.566Z,99.99
2023-02-02T05:15:12.449Z,99.99
2023-02-02T05:16:12.457Z,99.99
2023-02-02T05:17:12.900Z,99.99
2023-02-02T05:18:12.380Z,99.99
2023-02-02T05:19:12.368Z,99.99
2023-02-02T05:20:12.361Z,99.99
2023-02-02T05:21:13.071Z,99.99
2023-02-02T05:22:12.340Z,99.99
2023-02-02T05:23:12.323Z,99.99
2023-02-02T05:24:12.342Z,99.99
2023-02-02T05:25:12.376Z,99.99
2023-02-02T05:26:12.299Z,99.99
2023-02-02T05:27:12.268Z,99.99
2023-02-02T05:28:12.279Z,99.99
2023-02-02T05:29:12.257Z,99.99
2023-02-02T05:30:12.279Z,99.99
2023-02-02T05:31:12.389Z,99.99
2023-02-02T05:32:12.221Z,99.99
2023-02-02T05:33:12.423Z,99.99
2023-02-02T05:34:12.180Z,99.99
2023-02-02T05:35:12.190Z,99.99
2023-02-02T05:36:12.195Z,99.99
2023-02-02T05:37:12.152Z,99.99
2023-02-02T05:38:12.147Z,99.99
2023-02-02T05:39:12.163Z,99.99
2023-02-02T05:40:12.178Z,99.99
2023-02-02T05:41:12.149Z,99.99
2023-02-02T05:42:12.098Z,99.99
2023-02-02T05:43:12.101Z,99.99
2023-02-02T05:44:12.300Z,99.99
2023-02-02T05:45:12.127Z,99.99
2023-02-02T05:46:12.089Z,99.99
2023-02-02T05:47:12.051Z,99.99
2023-02-02T05:48:12.036Z,99.99
2023-02-02T05:49:12.036Z,99.99
2023-02-02T05:50:12.004Z,99.99
2023-02-02T05:51:12.047Z,99.99
2023-02-02T05:52:11.996Z,99.99
2023-02-02T05:53:11.983Z,99.99
2023-02-02T05:54:12.015Z,99.99
2023-02-02T05:55:12.140Z,99.99
2023-02-02T05:56:12.154Z,99.99
2023-02-02T05:57:11.951Z,99.99
2023-02-02T05:58:11.932Z,99.99
2023-02-02T05:59:11.933Z,99.99
2023-02-02T06:00:11.926Z,99.99
2023-02-02T06:01:11.905Z,99.99
2023-02-02T06:02:12.352Z,99.99
2023-02-02T06:03:11.962Z,99.99
2023-02-02T06:04:11.916Z,99.99
2023-02-02T06:05:12.044Z,99.99
2023-02-02T06:06:11.829Z,99.99
2023-02-02T06:07:11.829Z,99.99
2023-02-02T06:08:11.808Z,99.99
2023-02-02T06:09:13.237Z,99.99
2023-02-02T06:10:13.248Z,99.99
2023-02-02T06:11:11.829Z,99.99
2023-02-02T06:12:11.749Z,99.99
2023-02-02T06:13:11.769Z,99.99
2023-02-02T06:14:11.870Z,99.99
2023-02-02T06:15:11.848Z,99.99
2023-02-02T06:16:11.753Z,99.99
2023-02-02T06:17:11.717Z,99.99
2023-02-02T06:18:11.690Z,99.99
2023-02-02T06:19:11.712Z,99.99
2023-02-02T06:20:11.662Z,99.99
2023-02-02T06:21:12.004Z,99.99
2023-02-02T06:22:12.105Z,99.99
2023-02-02T06:23:11.636Z,99.99
2023-02-02T06:24:11.634Z,99.99
2023-02-02T06:25:11.627Z,99.99
2023-02-02T06:26:11.601Z,99.99
2023-02-02T06:27:11.623Z,99.99
2023-02-02T06:28:11.572Z,99.99
2023-02-02T06:29:11.573Z,99.99
2023-02-02T06:30:11.560Z,99.99
2023-02-02T06:31:11.733Z,99.99
2023-02-02T06:32:11.558Z,99.99
2023-02-02T06:33:11.584Z,99.99
2023-02-02T06:34:11.529Z,99.99
2023-02-02T06:35:11.580Z,99.99
2023-02-02T06:36:11.498Z,99.99
2023-02-02T06:37:11.548Z,99.99
2023-02-02T06:38:11.488Z,99.99
2023-02-02T06:39:11.488Z,99.99
2023-02-02T06:40:11.448Z,99.99
2023-02-02T06:41:11.438Z,99.99
2023-02-02T06:42:20.723Z,99.99
2023-02-02T06:43:12.430Z,99.99
2023-02-02T06:44:11.385Z,99.99
2023-02-02T06:45:11.396Z,99.99
2023-02-02T06:46:11.683Z,99.99
2023-02-02T06:47:11.380Z,99.99
2023-02-02T06:48:11.347Z,99.99
2023-02-02T06:49:11.374Z,99.99
2023-02-02T06:50:11.316Z,99.99
2023-02-02T06:51:11.312Z,99.99
2023-02-02T06:52:11.337Z,99.99
2023-02-02T06:53:11.300Z,99.99
2023-02-02T06:54:11.298Z,99.99
2023-02-02T06:55:12.024Z,99.99
2023-02-02T06:56:11.268Z,99.99
2023-02-02T06:57:11.256Z,99.99
2023-02-02T06:58:11.276Z,99.99
2023-02-02T06:59:11.232Z,99.99
2023-02-02T07:00:11.208Z,99.99
2023-02-02T07:01:11.273Z,99.99
2023-02-02T07:02:11.208Z,99.99
2023-02-02T07:03:11.191Z,99.99
2023-02-02T07:04:11.180Z,99.99
2023-02-02T07:05:11.176Z,99.99
2023-02-02T07:06:11.195Z,99.99
2023-02-02T07:07:11.163Z,99.99
2023-02-02T07:08:11.129Z,99.99
2023-02-02T07:09:11.141Z,99.99
2023-02-02T07:11:11.512Z,99.99
2023-02-02T07:11:15.276Z,99.99
2023-02-02T07:12:11.108Z,99.99
2023-02-02T07:13:11.082Z,99.99
2023-02-02T07:14:11.105Z,99.99
2023-02-02T07:15:11.085Z,99.99
2023-02-02T07:16:11.092Z,99.99
2023-02-02T07:17:11.038Z,99.99
2023-02-02T07:18:11.016Z,99.99
2023-02-02T07:19:11.019Z,99.99
2023-02-02T07:20:11.363Z,99.99
2023-02-02T07:21:11.005Z,99.99
2023-02-02T07:22:10.995Z,99.99
2023-02-02T07:23:10.961Z,99.99
2023-02-02T07:24:10.957Z,99.99
2023-02-02T07:25:10.938Z,99.99
2023-02-02T07:26:10.933Z,99.99
2023-02-02T07:27:10.935Z,99.99
2023-02-02T07:28:10.906Z,99.99
2023-02-02T07:29:10.887Z,99.99
2023-02-02T07:30:10.882Z,99.99
2023-02-02T07:31:10.947Z,99.99
2023-02-02T07:32:10.914Z,99.99
2023-02-02T07:33:10.855Z,99.99
2023-02-02T07:34:10.828Z,99.99
2023-02-02T07:35:10.838Z,99.99
2023-02-02T07:36:10.809Z,99.99
2023-02-02T07:37:10.822Z,99.99
2023-02-02T07:38:10.786Z,99.99
2023-02-02T07:39:10.809Z,99.99
2023-02-02T07:40:10.765Z,99.99
2023-02-02T07:41:10.778Z,99.99
2023-02-02T07:42:10.768Z,99.99
2023-02-02T07:43:10.779Z,99.99
2023-02-02T07:44:10.714Z,99.99
2023-02-02T07:45:27.725Z,99.99
2023-02-02T07:46:11.731Z,99.99
2023-02-02T07:47:10.702Z,99.99
2023-02-02T07:48:10.697Z,99.99
2023-02-02T07:49:10.675Z,99.99
2023-02-02T07:50:10.854Z,99.99
2023-02-02T07:51:10.634Z,99.99
2023-02-02T07:52:10.634Z,99.99
2023-02-02T07:53:10.626Z,99.99
2023-02-02T07:54:10.605Z,99.99
2023-02-02T07:55:14.648Z,99.99
2023-02-02T07:56:10.861Z,99.99
2023-02-02T07:57:10.587Z,99.99
2023-02-02T07:58:10.584Z,99.99
2023-02-02T07:59:10.573Z,99.99
2023-02-02T08:00:10.541Z,99.99
2023-02-02T08:01:10.613Z,99.99
2023-02-02T08:02:10.593Z,99.99
2023-02-02T08:03:10.520Z,99.99
2023-02-02T08:04:10.650Z,99.99
2023-02-02T08:05:10.498Z,99.99
2023-02-02T08:06:10.467Z,99.99
2023-02-02T08:07:10.497Z,99.99
2023-02-02T08:08:10.448Z,99.99
2023-02-02T08:09:10.461Z,99.99
2023-02-02T08:10:10.435Z,99.99
2023-02-02T08:11:11.114Z,99.99
2023-02-02T08:12:10.543Z,99.99
2023-02-02T08:13:10.398Z,99.99
2023-02-02T08:14:10.403Z,99.99
2023-02-02T08:15:11.331Z,99.99
2023-02-02T08:16:10.405Z,99.99
2023-02-02T08:17:10.372Z,99.99
2023-02-02T08:18:10.352Z,99.99
2023-02-02T08:19:10.355Z,99.99
2023-02-02T08:20:10.363Z,99.99
2023-02-02T08:21:10.317Z,99.99
2023-02-02T08:22:10.314Z,99.99
2023-02-02T08:23:10.319Z,99.99
2023-02-02T08:24:10.665Z,99.99
2023-02-02T08:25:10.287Z,99.99
2023-02-02T08:26:10.283Z,99.99
2023-02-02T08:27:10.236Z,99.99
2023-02-02T08:28:10.240Z,99.99
2023-02-02T08:29:10.259Z,99.99
2023-02-02T08:30:10.219Z,99.99
2023-02-02T08:31:10.245Z,99.99
2023-02-02T08:32:10.206Z,99.99
2023-02-02T08:33:10.176Z,99.99
2023-02-02T08:34:10.177Z,99.99
2023-02-02T08:35:10.170Z,99.99
2023-02-02T08:36:10.143Z,99.99
2023-02-02T08:37:10.244Z,99.99
2023-02-02T08:38:10.109Z,99.99
2023-02-02T08:39:10.128Z,99.99
2023-02-02T08:40:10.183Z,99.99
2023-02-02T08:41:10.171Z,99.99
2023-02-02T08:42:10.075Z,99.99
2023-02-02T08:43:10.512Z,99.99
2023-02-02T08:44:11.683Z,99.99
2023-02-02T08:46:03.166Z,99.99
2023-02-02T08:46:11.119Z,99.99
2023-02-02T08:47:10.110Z,99.99
2023-02-02T08:48:12.626Z,99.99
2023-02-02T08:49:09.995Z,99.99
2023-02-02T08:50:09.983Z,99.99
2023-02-02T08:51:09.998Z,99.99
2023-02-02T08:52:09.956Z,99.99
2023-02-02T08:53:09.990Z,99.99
2023-02-02T08:54:09.960Z,99.99
2023-02-02T08:55:09.931Z,99.99
2023-02-02T08:56:10.588Z,99.99
2023-02-02T08:57:09.909Z,99.99
2023-02-02T08:58:09.885Z,99.99
2023-02-02T08:59:09.919Z,99.99
2023-02-02T09:00:09.878Z,99.99
2023-02-02T09:01:09.913Z,99.99
2023-02-02T09:02:09.862Z,99.99
2023-02-02T09:03:09.853Z,99.99
2023-02-02T09:04:09.907Z,99.99
2023-02-02T09:05:09.815Z,99.99
2023-02-02T09:06:09.804Z,99.99
2023-02-02T09:07:09.816Z,99.99
2023-02-02T09:08:09.795Z,99.99
2023-02-02T09:09:09.778Z,99.99
2023-02-02T09:10:09.751Z,99.99
2023-02-02T09:11:09.765Z,99.99
2023-02-02T09:12:09.733Z,99.99
2023-02-02T09:13:09.744Z,99.99
2023-02-02T09:14:09.704Z,99.99
2023-02-02T09:15:09.704Z,99.99
2023-02-02T09:16:09.717Z,99.99
2023-02-02T09:17:09.696Z,99.99
2023-02-02T09:18:09.676Z,99.99
2023-02-02T09:19:09.706Z,99.99
2023-02-02T09:20:09.643Z,99.99
2023-02-02T09:21:09.639Z,99.99
2023-02-02T09:22:09.628Z,99.99
2023-02-02T09:23:09.724Z,99.99
2023-02-02T09:24:09.732Z,99.99
2023-02-02T09:25:09.588Z,99.99
2023-02-02T09:26:09.567Z,99.99
2023-02-02T09:27:09.566Z,99.99
2023-02-02T09:28:09.572Z,99.99
2023-02-02T09:29:09.544Z,99.99
2023-02-02T09:30:09.882Z,99.99
2023-02-02T09:31:09.581Z,99.99
2023-02-02T09:32:09.616Z,99.99
2023-02-02T09:33:09.524Z,99.99
2023-02-02T09:34:09.521Z,99.99
2023-02-02T09:35:09.493Z,99.99
2023-02-02T09:36:09.468Z,99.99
2023-02-02T09:37:09.464Z,99.99
2023-02-02T09:38:09.437Z,99.99
2023-02-02T09:39:09.459Z,99.99
2023-02-02T09:40:09.414Z,99.99
2023-02-02T09:41:09.540Z,99.99
2023-02-02T09:42:09.400Z,99.99
2023-02-02T09:43:09.402Z,99.99
2023-02-02T09:44:09.412Z,99.99
2023-02-02T09:45:10.178Z,99.99
2023-02-02T09:46:09.368Z,99.99
2023-02-02T09:47:09.344Z,99.99
2023-02-02T09:48:09.356Z,99.99
2023-02-02T09:49:09.545Z,99.99
2023-02-02T09:50:09.817Z,99.99
2023-02-02T09:51:09.284Z,99.99
2023-02-02T09:52:09.400Z,99.99
2023-02-02T09:53:09.267Z,99.99
2023-02-02T09:54:09.269Z,99.99
2023-02-02T09:55:09.252Z,99.99
2023-02-02T09:56:09.273Z,99.99
2023-02-02T09:57:09.226Z,99.99
2023-02-02T09:58:09.213Z,99.99
2023-02-02T09:59:19.050Z,99.99
2023-02-02T10:00:10.274Z,99.99
2023-02-02T10:01:09.199Z,99.99
2023-02-02T10:02:09.170Z,99.99
2023-02-02T10:03:09.143Z,99.99
2023-02-02T10:04:09.206Z,99.99
2023-02-02T10:05:09.610Z,99.99
2023-02-02T10:06:09.172Z,99.99
2023-02-02T10:07:09.146Z,99.99
2023-02-02T10:08:09.108Z,99.99
2023-02-02T10:09:09.084Z,99.99
2023-02-02T10:10:09.132Z,99.99
2023-02-02T10:11:09.065Z,99.99
2023-02-02T10:12:09.121Z,99.99
2023-02-02T10:13:09.061Z,99.99
2023-02-02T10:14:09.032Z,99.99
2023-02-02T10:15:09.013Z,99.99
2023-02-02T10:16:09.169Z,99.99
2023-02-02T10:17:09.013Z,99.99
2023-02-02T10:18:08.993Z,99.99
2023-02-02T10:19:08.977Z,99.99
2023-02-02T10:20:08.965Z,99.99
2023-02-02T10:21:08.953Z,99.99
2023-02-02T10:22:09.196Z,99.99
2023-02-02T10:23:08.934Z,99.99
2023-02-02T10:24:08.934Z,99.99
2023-02-02T10:25:08.905Z,99.99
2023-02-02T10:26:08.892Z,99.99
2023-02-02T10:27:08.907Z,99.99
2023-02-02T10:28:08.885Z,99.99
2023-02-02T10:29:08.863Z,99.99
2023-02-02T10:30:08.867Z,99.99
2023-02-02T10:31:08.977Z,99.99
2023-02-02T10:32:08.979Z,99.99
2023-02-02T10:33:09.261Z,99.99
2023-02-02T10:34:09.781Z,99.99
2023-02-02T10:35:14.030Z,99.99
2023-02-02T10:36:09.783Z,99.99
2023-02-02T10:37:08.769Z,99.99
2023-02-02T10:38:08.780Z,99.99
2023-02-02T10:39:08.757Z,99.99
2023-02-02T10:40:08.881Z,99.99
2023-02-02T10:41:08.722Z,99.99
2023-02-02T10:42:08.712Z,99.99
2023-02-02T10:43:08.723Z,99.99
2023-02-02T10:44:08.713Z,99.99
2023-02-02T10:45:08.719Z,99.99
2023-02-02T10:46:08.730Z,99.99
2023-02-02T10:47:08.669Z,99.99
2023-02-02T10:48:08.673Z,99.99
2023-02-02T10:49:08.676Z,99.99
2023-02-02T10:50:08.675Z,99.99
2023-02-02T10:51:08.625Z,99.99
2023-02-02T10:52:08.640Z,99.99
2023-02-02T10:53:08.983Z,99.99
2023-02-02T10:54:08.598Z,99.99
2023-02-02T10:55:08.654Z,99.99
2023-02-02T10:56:08.575Z,99.99
2023-02-02T10:57:08.541Z,99.99
2023-02-02T10:58:08.529Z,99.99
2023-02-02T10:59:08.640Z,99.99
2023-02-02T11:00:08.534Z,99.99
2023-02-02T11:01:08.587Z,99.99
2023-02-02T11:02:20.106Z,99.99
2023-02-02T11:03:09.537Z,99.99
2023-02-02T11:04:08.492Z,99.99
2023-02-02T11:05:08.491Z,99.99
2023-02-02T11:06:08.679Z,99.99
2023-02-02T11:07:08.427Z,99.99
2023-02-02T11:08:08.446Z,99.99
2023-02-02T11:09:08.497Z,99.99
2023-02-02T11:10:08.419Z,99.99
2023-02-02T11:11:08.406Z,99.99
2023-02-02T11:12:08.388Z,99.99
2023-02-02T11:13:08.363Z,99.99
2023-02-02T11:14:08.428Z,99.99
2023-02-02T11:15:08.347Z,99.99
2023-02-02T11:16:08.406Z,99.99
2023-02-02T11:17:08.312Z,99.99
2023-02-02T11:18:08.553Z,99.99
2023-02-02T11:19:08.292Z,99.99
2023-02-02T11:20:08.291Z,99.99
2023-02-02T11:21:08.275Z,99.99
2023-02-02T11:22:08.533Z,99.99
2023-02-02T11:23:08.254Z,99.99
2023-02-02T11:24:08.240Z,99.99
2023-02-02T11:25:08.251Z,99.99
2023-02-02T11:26:08.222Z,99.99
2023-02-02T11:27:08.242Z,99.99
2023-02-02T11:28:08.209Z,99.99
2023-02-02T11:29:08.172Z,99.99
2023-02-02T11:30:08.184Z,99.99
2023-02-02T11:31:08.261Z,99.99
2023-02-02T11:32:08.161Z,99.99
2023-02-02T11:33:08.263Z,99.99
2023-02-02T11:34:08.133Z,99.99
2023-02-02T11:35:08.124Z,99.99
2023-02-02T11:36:08.150Z,99.99
2023-02-02T11:37:08.096Z,99.99
2023-02-02T11:38:08.130Z,99.99
2023-02-02T11:39:08.072Z,99.99
2023-02-02T11:40:08.183Z,99.99
2023-02-02T11:41:08.045Z,99.99
2023-02-02T11:42:08.052Z,99.99
2023-02-02T11:43:08.041Z,99.99
2023-02-02T11:44:08.073Z,99.99
2023-02-02T11:45:08.026Z,99.99
2023-02-02T11:46:08.098Z,99.99
2023-02-02T11:47:08.013Z,99.99
2023-02-02T11:48:07.981Z,99.99
2023-02-02T11:49:07.981Z,99.99
2023-02-02T11:50:07.968Z,99.99
2023-02-02T11:51:08.136Z,99.99
2023-02-02T11:52:07.960Z,99.99
2023-02-02T11:53:07.982Z,99.99
2023-02-02T11:54:07.961Z,99.99
2023-02-02T11:55:07.899Z,99.99
2023-02-02T11:56:07.892Z,99.99
2023-02-02T11:57:07.864Z,99.99
2023-02-02T11:58:07.872Z,99.99
2023-02-02T11:59:07.840Z,99.99
2023-02-02T12:00:07.930Z,99.99
2023-02-02T12:01:07.847Z,99.99
2023-02-02T12:02:07.910Z,99.99
2023-02-02T12:03:07.820Z,99.99
2023-02-02T12:04:08.252Z,99.99
2023-02-02T12:05:07.791Z,99.99
2023-02-02T12:06:07.785Z,99.99
2023-02-02T12:07:07.757Z,99.99
2023-02-02T12:08:07.776Z,99.99
2023-02-02T12:09:07.741Z,99.99
2023-02-02T12:10:07.742Z,99.99
2023-02-02T12:11:07.714Z,99.99
2023-02-02T12:12:07.728Z,99.99
2023-02-02T12:13:07.703Z,99.99
2023-02-02T12:14:07.689Z,99.99
2023-02-02T12:15:07.713Z,99.99
2023-02-02T12:16:09.146Z,99.99
2023-02-02T12:17:08.020Z,99.99
2023-02-02T12:18:07.799Z,99.99
2023-02-02T12:19:07.618Z,99.99
2023-02-02T12:20:07.653Z,99.99
2023-02-02T12:21:07.613Z,99.99
2023-02-02T12:22:09.375Z,99.99
2023-02-02T12:23:07.840Z,99.99
2023-02-02T12:24:07.649Z,99.99
2023-02-02T12:25:07.573Z,99.99
2023-02-02T12:26:07.566Z,99.99
2023-02-02T12:27:08.069Z,99.99
2023-02-02T12:28:08.053Z,99.99
2023-02-02T12:29:07.542Z,99.99
2023-02-02T12:30:07.543Z,99.99
2023-02-02T12:31:07.586Z,99.99
2023-02-02T12:32:07.508Z,99.99
2023-02-02T12:33:07.461Z,99.99
2023-02-02T12:34:09.046Z,99.99
2023-02-02T12:35:07.451Z,99.99
2023-02-02T12:36:07.473Z,99.99
2023-02-02T12:37:07.422Z,99.99
2023-02-02T12:38:07.544Z,99.99
2023-02-02T12:39:07.562Z,99.99
2023-02-02T12:40:07.397Z,99.99
2023-02-02T12:41:07.370Z,99.99
2023-02-02T12:42:07.661Z,99.99
2023-02-02T12:43:07.364Z,99.99
2023-02-02T12:44:07.378Z,99.99
2023-02-02T12:45:07.370Z,99.99
2023-02-02T12:46:09.136Z,99.99
2023-02-02T12:47:07.340Z,99.99
2023-02-02T12:48:07.312Z,99.99
2023-02-02T12:49:07.292Z,99.99
2023-02-02T12:50:07.306Z,99.99
2023-02-02T12:51:07.274Z,99.99
2023-02-02T12:52:07.281Z,99.99